createdAt,value
2018-09-28T00:02:04.610Z,13.94
2018-09-28T00:07:07.711Z,13.83
2018-09-28T00:12:10.804Z,13.70
2018-09-28T00:17:13.869Z,13.74
2018-09-28T00:22:17.001Z,13.80
2018-09-28T00:27:20.151Z,13.88
2018-09-28T00:32:23.295Z,13.91
2018-09-28T00:37:26.468Z,13.93
2018-09-28T00:42:29.644Z,13.98
2018-09-28T00:47:32.968Z,14.00
2018-09-28T00:52:36.112Z,14.02
2018-09-28T00:57:39.267Z,14.05
2018-09-28T01:02:42.412Z,14.03
2018-09-28T01:07:45.596Z,14.01
2018-09-28T01:12:48.773Z,13.97
2018-09-28T01:17:51.939Z,14.06
2018-09-28T01:22:54.997Z,14.33
2018-09-28T01:27:58.248Z,14.61
2018-09-28T01:33:01.343Z,14.80
2018-09-28T01:38:04.535Z,15.05
2018-09-28T01:43:07.719Z,15.26
2018-09-28T01:48:10.836Z,15.49
2018-09-28T01:53:13.918Z,15.69
2018-09-28T01:58:16.998Z,15.80
2018-09-28T02:03:20.067Z,15.90
2018-09-28T02:08:23.131Z,15.97
2018-09-28T02:13:27.110Z,16.04
2018-09-28T02:18:30.250Z,15.58
2018-09-28T02:23:33.327Z,15.36
2018-09-28T02:28:36.659Z,15.30
2018-09-28T02:33:39.732Z,15.34
2018-09-28T02:38:42.792Z,15.38
2018-09-28T02:43:47.251Z,15.42
2018-09-28T02:48:50.399Z,15.34
2018-09-28T02:53:53.444Z,15.30
2018-09-28T02:58:56.527Z,15.36
2018-09-28T03:03:59.639Z,15.49
2018-09-28T03:09:03.119Z,15.65
2018-09-28T03:14:06.676Z,15.74
2018-09-28T03:19:09.874Z,15.79
2018-09-28T03:24:12.972Z,15.86
2018-09-28T03:29:16.040Z,15.92
2018-09-28T03:34:19.120Z,15.93
2018-09-28T03:39:22.292Z,16.00
2018-09-28T03:44:25.392Z,16.05
2018-09-28T03:49:28.475Z,16.11
2018-09-28T03:54:31.721Z,16.12
2018-09-28T03:59:34.781Z,16.01
2018-09-28T04:04:37.854Z,15.97
2018-09-28T04:09:41.007Z,15.93
2018-09-28T04:14:44.135Z,15.92
2018-09-28T04:19:47.309Z,15.92
2018-09-28T04:24:50.388Z,15.93
2018-09-28T04:29:53.524Z,15.97
2018-09-28T04:34:56.751Z,16.01
2018-09-28T04:39:59.804Z,16.01
2018-09-28T04:45:03.002Z,15.92
2018-09-28T04:50:06.111Z,15.77
2018-09-28T04:55:09.229Z,15.54
2018-09-28T05:00:12.384Z,15.44
2018-09-28T05:05:15.442Z,15.45
2018-09-28T05:10:18.596Z,15.62
2018-09-28T05:15:21.727Z,15.73
2018-09-28T05:20:24.928Z,15.77
2018-09-28T05:25:28.231Z,15.80
2018-09-28T05:30:31.404Z,15.85
2018-09-28T05:35:34.524Z,15.96
2018-09-28T05:40:37.859Z,15.99
2018-09-28T05:45:40.961Z,15.89
2018-09-28T05:50:44.021Z,15.96
2018-09-28T05:55:47.110Z,16.06
2018-09-28T06:00:55.656Z,16.04
2018-09-28T06:06:03.673Z,16.07
2018-09-28T06:11:06.852Z,16.12
2018-09-28T06:16:09.989Z,16.13
2018-09-28T06:21:22.646Z,16.06
2018-09-28T06:32:10.779Z,16.14
2018-09-28T06:37:13.875Z,16.08
2018-09-28T06:42:17.025Z,16.12
2018-09-28T06:47:20.099Z,16.23
2018-09-28T06:52:23.200Z,16.24
2018-09-28T06:57:26.253Z,16.26
2018-09-28T07:02:29.348Z,16.23
2018-09-28T07:07:32.432Z,16.25
2018-09-28T07:12:35.524Z,16.24
2018-09-28T07:17:38.646Z,16.31
2018-09-28T07:22:41.761Z,16.31
2018-09-28T07:27:44.876Z,16.18
2018-09-28T07:32:47.979Z,16.16
2018-09-28T07:37:51.043Z,15.79
2018-09-28T07:42:54.103Z,15.83
2018-09-28T07:47:57.231Z,15.95
2018-09-28T07:53:00.266Z,16.08
2018-09-28T07:58:03.388Z,16.45
2018-09-28T08:03:06.524Z,16.57
2018-09-28T08:08:09.567Z,16.88
2018-09-28T08:13:12.657Z,17.17
2018-09-28T08:18:15.752Z,17.31
2018-09-28T08:23:18.905Z,17.47
2018-09-28T08:28:21.991Z,17.35
2018-09-28T08:33:25.096Z,17.55
2018-09-28T08:38:28.185Z,17.44
2018-09-28T08:43:31.323Z,17.43
2018-09-28T08:48:34.492Z,17.50
2018-09-28T08:53:37.563Z,17.67
2018-09-28T08:58:40.714Z,17.74
2018-09-28T09:03:43.855Z,17.70
2018-09-28T09:08:47.004Z,17.94
2018-09-28T09:13:50.072Z,17.93
2018-09-28T09:18:53.259Z,17.57
2018-09-28T09:23:56.470Z,17.77
2018-09-28T09:28:59.548Z,17.89
2018-09-28T09:34:02.625Z,18.08
2018-09-28T09:39:08.046Z,18.23
2018-09-28T09:44:11.136Z,18.52
2018-09-28T09:49:14.255Z,19.20
2018-09-28T09:54:17.333Z,19.53
2018-09-28T09:59:20.421Z,19.29
2018-09-28T10:04:23.656Z,18.84
2018-09-28T10:09:27.371Z,18.77
2018-09-28T10:14:33.792Z,18.63
2018-09-28T10:19:37.042Z,18.90
2018-09-28T10:24:40.095Z,19.15
2018-09-28T10:29:43.166Z,19.17
2018-09-28T10:34:46.338Z,18.61
2018-09-28T10:39:49.505Z,18.72
2018-09-28T10:44:52.543Z,19.23
2018-09-28T10:49:55.603Z,19.47
2018-09-28T10:54:58.679Z,19.44
2018-09-28T11:00:01.889Z,19.61
2018-09-28T11:05:05.132Z,19.66
2018-09-28T11:10:08.397Z,20.13
2018-09-28T11:15:11.513Z,19.83
2018-09-28T11:20:14.590Z,19.62
2018-09-28T11:25:17.679Z,19.74
2018-09-28T11:30:20.739Z,19.85
2018-09-28T11:35:23.808Z,19.33
2018-09-28T11:40:26.944Z,19.27
2018-09-28T11:45:30.178Z,19.13
2018-09-28T11:50:34.059Z,19.02
2018-09-28T11:55:37.656Z,18.85
2018-09-28T12:00:40.933Z,19.18
2018-09-28T12:05:44.772Z,19.69
2018-09-28T12:10:47.927Z,19.51
2018-09-28T12:15:51.200Z,19.33
2018-09-28T12:20:54.163Z,19.48
2018-09-28T12:25:57.316Z,19.84
2018-09-28T12:31:00.479Z,20.59
2018-09-28T12:36:03.626Z,20.61
2018-09-28T12:41:06.853Z,20.23
2018-09-28T12:46:10.095Z,19.63
2018-09-28T12:51:13.496Z,19.21
2018-09-28T12:56:16.632Z,18.78
2018-09-28T13:01:19.904Z,18.91
2018-09-28T13:06:23.213Z,19.12
2018-09-28T13:11:26.354Z,19.55
2018-09-28T13:16:29.474Z,19.79
2018-09-28T13:21:32.607Z,19.48
2018-09-28T13:26:35.743Z,19.09
2018-09-28T13:31:38.907Z,19.25
2018-09-28T13:36:42.153Z,19.42
2018-09-28T13:41:45.287Z,19.66
2018-09-28T13:46:48.463Z,19.38
2018-09-28T13:51:52.455Z,19.12
2018-09-28T13:56:55.570Z,18.98
2018-09-28T14:01:58.671Z,19.54
2018-09-28T14:07:01.862Z,19.93
2018-09-28T14:12:04.928Z,19.52
2018-09-28T14:17:08.106Z,19.27
2018-09-28T14:22:11.564Z,19.36
2018-09-28T14:27:14.687Z,19.22
2018-09-28T14:32:17.798Z,19.30
2018-09-28T14:37:20.924Z,19.03
2018-09-28T14:42:24.088Z,18.72
2018-09-28T14:47:27.233Z,18.87
2018-09-28T14:52:30.577Z,18.73
2018-09-28T14:57:33.699Z,18.68
2018-09-28T15:02:36.939Z,18.72
2018-09-28T15:07:40.198Z,18.45
2018-09-28T15:12:43.221Z,18.42
2018-09-28T15:17:46.392Z,18.45
2018-09-28T15:22:49.499Z,18.57
2018-09-28T15:27:52.583Z,18.49
2018-09-28T15:32:55.697Z,18.63
2018-09-28T15:37:58.815Z,18.29
2018-09-28T15:43:01.899Z,18.17
2018-09-28T15:48:05.093Z,18.18
2018-09-28T15:53:08.187Z,18.10
2018-09-28T15:58:11.364Z,18.17
2018-09-28T16:03:14.423Z,18.10
2018-09-28T16:08:17.504Z,17.79
2018-09-28T16:13:20.584Z,17.83
2018-09-28T16:18:23.668Z,17.84
2018-09-28T16:23:26.714Z,17.76
2018-09-28T16:28:31.607Z,17.59
2018-09-28T16:33:35.335Z,17.40
2018-09-28T16:38:38.745Z,17.30
2018-09-28T16:43:42.712Z,17.06
2018-09-28T16:48:45.844Z,16.81
2018-09-28T16:53:49.264Z,16.69
2018-09-28T16:58:52.439Z,16.60
2018-09-28T17:03:55.647Z,16.50
2018-09-28T17:08:58.784Z,16.26
2018-09-28T17:14:01.824Z,16.12
2018-09-28T17:19:04.996Z,15.96
2018-09-28T17:24:08.123Z,15.79
2018-09-28T17:29:11.506Z,15.75
2018-09-28T17:34:14.789Z,15.67
2018-09-28T17:39:18.891Z,15.54
2018-09-28T17:44:22.271Z,15.40
2018-09-28T17:49:27.429Z,15.31
2018-09-28T17:54:31.857Z,15.20
2018-09-28T17:59:35.777Z,14.99
2018-09-28T18:04:39.203Z,14.94
2018-09-28T18:09:43.118Z,14.86
2018-09-28T18:14:46.496Z,14.75
2018-09-28T18:19:49.873Z,14.68
2018-09-28T18:24:53.051Z,14.70
2018-09-28T18:29:56.195Z,14.66
2018-09-28T18:34:59.257Z,14.59
2018-09-28T18:40:02.391Z,14.57
2018-09-28T18:45:05.677Z,14.48
2018-09-28T18:50:08.876Z,14.43
2018-09-28T18:55:12.842Z,14.36
2018-09-28T19:00:15.979Z,14.30
2018-09-28T19:05:19.439Z,14.25
2018-09-28T19:10:23.345Z,14.21
2018-09-28T19:15:26.724Z,14.17
2018-09-28T19:20:30.151Z,14.11
2018-09-28T19:25:34.731Z,14.08
2018-09-28T19:30:38.969Z,14.04
2018-09-28T19:35:42.532Z,14.00
2018-09-28T19:40:45.649Z,13.88
2018-09-28T19:45:48.871Z,13.79
2018-09-28T19:50:52.057Z,13.74
2018-09-28T19:55:55.568Z,13.70
2018-09-28T20:00:58.687Z,13.66
2018-09-28T20:06:01.823Z,13.57
2018-09-28T20:11:05.191Z,13.50
2018-09-28T20:16:08.468Z,13.47
2018-09-28T20:21:12.076Z,13.40
2018-09-28T20:26:15.179Z,13.28
2018-09-28T20:31:18.247Z,13.16
2018-09-28T20:36:21.299Z,13.04
2018-09-28T20:41:24.415Z,12.98
2018-09-28T20:46:27.762Z,12.87
2018-09-28T20:51:30.945Z,12.80
2018-09-28T20:56:34.028Z,12.79
2018-09-28T21:01:37.093Z,12.74
2018-09-28T21:06:40.150Z,12.69
2018-09-28T21:11:43.232Z,12.59
2018-09-28T21:16:46.326Z,12.54
2018-09-28T21:21:49.379Z,12.47
2018-09-28T21:26:52.444Z,12.35
2018-09-28T21:31:55.579Z,12.32
2018-09-28T21:36:58.648Z,12.16
2018-09-28T21:42:01.726Z,12.31
2018-09-28T21:47:04.844Z,12.33
2018-09-28T21:52:07.956Z,12.35
2018-09-28T21:57:11.071Z,12.31
2018-09-28T22:02:14.172Z,12.26
2018-09-28T22:07:17.283Z,12.26
2018-09-28T22:12:20.383Z,12.19
2018-09-28T22:17:23.481Z,12.03
2018-09-28T22:22:26.544Z,11.83
2018-09-28T22:27:29.612Z,11.66
2018-09-28T22:32:32.731Z,11.43
2018-09-28T22:37:35.825Z,11.24
2018-09-28T22:42:38.930Z,11.05
2018-09-28T22:47:42.026Z,11.00
2018-09-28T22:52:45.180Z,10.94
2018-09-28T22:57:48.264Z,10.91
2018-09-28T23:02:51.363Z,10.97
2018-09-28T23:07:54.487Z,10.83
2018-09-28T23:12:57.611Z,10.71
2018-09-28T23:18:00.692Z,10.58
2018-09-28T23:23:03.780Z,10.54
2018-09-28T23:28:06.882Z,10.63
2018-09-28T23:33:09.980Z,10.73
2018-09-28T23:38:13.143Z,10.73
2018-09-28T23:43:16.225Z,10.66
2018-09-28T23:48:19.303Z,10.63
2018-09-28T23:53:22.407Z,10.63
2018-09-28T23:58:25.558Z,10.56
